createdAt,value
2019-02-24T00:02:19.178Z,96.50
2019-02-24T00:04:51.467Z,96.20
2019-02-24T00:07:23.909Z,96.30
2019-02-24T00:09:56.146Z,96.20
2019-02-24T00:12:28.384Z,96.10
2019-02-24T00:15:01.235Z,96.10
2019-02-24T00:17:33.534Z,95.90
2019-02-24T00:20:06.170Z,95.80
2019-02-24T00:22:38.358Z,95.80
2019-02-24T00:25:10.988Z,95.80
2019-02-24T00:27:43.269Z,95.80
2019-02-24T00:30:15.665Z,95.80
2019-02-24T00:32:47.790Z,95.70
2019-02-24T00:35:20.042Z,95.80
2019-02-24T00:37:52.458Z,95.70
2019-02-24T00:40:24.722Z,95.90
2019-02-24T00:42:56.983Z,95.80
2019-02-24T00:45:29.407Z,95.90
2019-02-24T00:48:01.728Z,96.00
2019-02-24T00:50:34.227Z,96.10
2019-02-24T00:53:06.698Z,96.00
2019-02-24T00:55:38.878Z,96.00
2019-02-24T00:58:16.178Z,96.10
2019-02-24T01:00:45.324Z,96.30
2019-02-24T01:03:17.969Z,96.20
2019-02-24T01:05:50.409Z,96.30
2019-02-24T01:08:22.569Z,96.30
2019-02-24T01:10:55.181Z,96.30
2019-02-24T01:13:27.494Z,96.30
2019-02-24T01:15:59.816Z,96.40
2019-02-24T01:18:32.220Z,96.50
2019-02-24T01:21:04.702Z,96.60
2019-02-24T01:23:36.951Z,96.60
2019-02-24T01:26:09.196Z,96.70
2019-02-24T01:28:41.457Z,96.90
2019-02-24T01:31:13.677Z,97.10
2019-02-24T01:33:46.115Z,97.20
2019-02-24T01:36:18.518Z,97.30
2019-02-24T01:38:50.971Z,97.20
2019-02-24T01:41:23.307Z,97.30
2019-02-24T01:43:56.410Z,97.30
2019-02-24T01:46:28.799Z,97.30
2019-02-24T01:49:00.987Z,97.20
2019-02-24T01:51:33.226Z,97.20
2019-02-24T01:54:05.501Z,97.20
2019-02-24T01:56:37.862Z,97.10
2019-02-24T01:59:10.038Z,97.10
2019-02-24T02:01:42.297Z,97.00
2019-02-24T02:04:14.468Z,97.00
2019-02-24T02:06:46.687Z,97.10
2019-02-24T02:09:19.071Z,97.20
2019-02-24T02:11:51.270Z,97.20
2019-02-24T02:14:23.529Z,97.30
2019-02-24T02:16:55.892Z,97.20
2019-02-24T02:19:28.296Z,97.10
2019-02-24T02:22:00.904Z,97.20
2019-02-24T02:24:33.192Z,97.00
2019-02-24T02:27:05.328Z,97.00
2019-02-24T02:29:37.579Z,96.70
2019-02-24T02:32:09.914Z,96.70
2019-02-24T02:34:42.123Z,96.70
2019-02-24T02:37:14.687Z,96.40
2019-02-24T02:39:46.993Z,96.40
2019-02-24T02:42:19.229Z,96.60
2019-02-24T02:44:51.575Z,96.60
2019-02-24T02:47:24.104Z,96.90
2019-02-24T02:49:56.376Z,96.40
2019-02-24T02:52:28.521Z,96.10
2019-02-24T02:55:00.780Z,96.60
2019-02-24T02:57:32.959Z,96.30
2019-02-24T03:00:07.466Z,96.40
2019-02-24T03:02:39.756Z,96.90
2019-02-24T03:05:12.347Z,97.00
2019-02-24T03:07:53.074Z,97.00
2019-02-24T03:10:36.734Z,96.80
2019-02-24T03:13:09.840Z,96.70
2019-02-24T03:15:43.120Z,96.70
2019-02-24T03:18:16.504Z,96.90
2019-02-24T03:20:49.531Z,96.70
2019-02-24T03:23:23.521Z,96.70
2019-02-24T03:25:57.492Z,96.80
2019-02-24T03:28:31.900Z,96.60
2019-02-24T03:31:04.996Z,96.70
2019-02-24T03:33:39.727Z,96.70
2019-02-24T03:36:12.942Z,96.70
2019-02-24T03:38:46.164Z,96.60
2019-02-24T03:41:19.233Z,96.50
2019-02-24T03:43:52.290Z,96.60
2019-02-24T03:46:25.831Z,96.30
2019-02-24T03:48:58.811Z,96.50
2019-02-24T03:51:32.185Z,96.50
2019-02-24T03:54:05.285Z,96.30
2019-02-24T03:56:38.245Z,96.40
2019-02-24T03:59:15.160Z,95.60
2019-02-24T04:01:46.536Z,95.70
2019-02-24T04:04:19.757Z,95.80
2019-02-24T04:06:53.045Z,95.50
2019-02-24T04:09:26.176Z,95.10
2019-02-24T04:11:59.364Z,95.60
2019-02-24T04:14:32.778Z,95.50
2019-02-24T04:17:06.932Z,95.50
2019-02-24T04:19:40.011Z,95.30
2019-02-24T04:22:13.110Z,95.70
2019-02-24T04:24:46.601Z,95.50
2019-02-24T04:27:19.641Z,95.10
2019-02-24T04:29:53.011Z,95.50
2019-02-24T04:32:26.247Z,95.80
2019-02-24T04:35:00.274Z,94.60
2019-02-24T04:37:33.579Z,95.00
2019-02-24T04:40:06.971Z,95.10
2019-02-24T04:42:40.810Z,94.90
2019-02-24T04:45:13.854Z,95.30
2019-02-24T04:47:47.406Z,95.30
2019-02-24T04:50:20.723Z,95.80
2019-02-24T04:52:54.438Z,95.90
2019-02-24T04:55:27.849Z,95.70
2019-02-24T04:58:01.272Z,95.10
2019-02-24T05:00:34.261Z,95.60
2019-02-24T05:03:07.248Z,95.50
2019-02-24T05:05:40.453Z,95.70
2019-02-24T05:08:13.580Z,95.90
2019-02-24T05:10:48.506Z,95.70
2019-02-24T05:13:22.635Z,95.60
2019-02-24T05:15:55.777Z,95.70
2019-02-24T05:18:28.956Z,96.00
2019-02-24T05:21:02.327Z,96.60
2019-02-24T05:23:35.403Z,96.30
2019-02-24T05:26:08.958Z,96.40
2019-02-24T05:28:42.375Z,96.50
2019-02-24T05:31:15.975Z,96.60
2019-02-24T05:33:49.622Z,96.80
2019-02-24T05:36:22.902Z,96.70
2019-02-24T05:38:56.429Z,96.80
2019-02-24T05:41:29.666Z,96.90
2019-02-24T05:44:02.797Z,96.10
2019-02-24T05:46:35.988Z,95.80
2019-02-24T05:49:09.951Z,95.40
2019-02-24T05:51:43.448Z,94.60
2019-02-24T05:54:16.877Z,93.60
2019-02-24T05:56:50.404Z,93.10
2019-02-24T05:59:23.757Z,93.10
2019-02-24T06:01:56.982Z,92.60
2019-02-24T06:04:30.791Z,91.50
2019-02-24T06:07:04.700Z,91.20
2019-02-24T06:09:38.120Z,90.60
2019-02-24T06:12:12.060Z,90.10
2019-02-24T06:14:45.543Z,90.10
2019-02-24T06:17:19.513Z,89.70
2019-02-24T06:19:52.784Z,90.00
2019-02-24T06:22:26.008Z,88.40
2019-02-24T06:24:59.925Z,87.10
2019-02-24T06:27:33.254Z,88.40
2019-02-24T06:30:07.085Z,87.40
2019-02-24T06:32:40.465Z,84.80
2019-02-24T06:35:14.700Z,85.50
2019-02-24T06:37:48.497Z,83.70
2019-02-24T06:40:22.381Z,85.20
2019-02-24T06:42:56.003Z,82.90
2019-02-24T06:45:29.595Z,80.80
2019-02-24T06:48:02.980Z,80.50
2019-02-24T06:50:55.495Z,81.50
2019-02-24T06:53:29.253Z,81.20
2019-02-24T06:56:02.890Z,80.00
2019-02-24T06:58:36.212Z,81.60
2019-02-24T07:01:09.590Z,80.50
2019-02-24T07:03:45.071Z,79.40
2019-02-24T07:06:18.768Z,80.60
2019-02-24T07:08:52.176Z,79.50
2019-02-24T07:11:25.578Z,78.50
2019-02-24T07:13:59.184Z,76.90
2019-02-24T07:16:32.033Z,76.80
2019-02-24T07:19:05.601Z,74.90
2019-02-24T07:21:39.298Z,72.00
2019-02-24T07:24:15.833Z,73.60
2019-02-24T07:26:49.644Z,72.40
2019-02-24T07:29:23.052Z,72.10
2019-02-24T07:31:56.781Z,73.60
2019-02-24T07:34:29.840Z,72.30
2019-02-24T07:37:12.563Z,70.80
2019-02-24T07:39:39.081Z,67.80
2019-02-24T07:42:12.895Z,68.70
2019-02-24T07:44:47.476Z,67.40
2019-02-24T07:47:23.327Z,65.30
2019-02-24T07:49:59.919Z,63.50
2019-02-24T07:52:33.633Z,65.40
2019-02-24T07:55:07.371Z,67.30
2019-02-24T07:57:40.938Z,67.60
2019-02-24T08:00:14.649Z,67.40
2019-02-24T08:02:48.299Z,64.70
2019-02-24T08:05:21.691Z,64.40
2019-02-24T08:07:55.938Z,63.10
2019-02-24T08:10:29.882Z,61.60
2019-02-24T08:13:03.535Z,67.20
2019-02-24T08:15:36.782Z,63.40
2019-02-24T08:18:10.870Z,64.20
2019-02-24T08:20:44.229Z,63.60
2019-02-24T08:23:17.949Z,63.10
2019-02-24T08:25:51.437Z,64.10
2019-02-24T08:28:25.032Z,66.70
2019-02-24T08:30:58.876Z,63.70
2019-02-24T08:33:32.616Z,62.40
2019-02-24T08:36:06.385Z,61.60
2019-02-24T08:38:40.489Z,62.00
2019-02-24T08:41:14.077Z,63.00
2019-02-24T08:43:47.163Z,61.00
2019-02-24T08:46:20.288Z,61.90
2019-02-24T08:48:53.973Z,61.20
2019-02-24T08:51:27.589Z,60.10
2019-02-24T08:54:00.970Z,59.50
2019-02-24T08:56:34.398Z,63.10
2019-02-24T08:59:09.385Z,62.10
2019-02-24T09:01:42.449Z,58.90
2019-02-24T09:04:15.890Z,59.10
2019-02-24T09:06:52.127Z,59.30
2019-02-24T09:09:25.756Z,64.00
2019-02-24T09:11:58.955Z,59.10
2019-02-24T09:14:32.827Z,58.50
2019-02-24T09:17:06.623Z,59.40
2019-02-24T09:19:39.881Z,58.80
2019-02-24T09:22:13.548Z,57.10
2019-02-24T09:24:47.582Z,57.90
2019-02-24T09:27:21.386Z,59.40
2019-02-24T09:29:54.863Z,59.40
2019-02-24T09:32:32.894Z,59.60
2019-02-24T09:35:07.728Z,58.70
2019-02-24T09:37:44.918Z,60.10
2019-02-24T09:40:18.559Z,59.20
2019-02-24T09:42:52.167Z,58.70
2019-02-24T09:45:25.856Z,59.50
2019-02-24T09:47:59.506Z,59.30
2019-02-24T09:50:33.717Z,60.00
2019-02-24T09:53:07.034Z,58.90
2019-02-24T09:55:40.807Z,60.20
2019-02-24T09:58:15.645Z,58.50
2019-02-24T10:00:49.111Z,57.10
2019-02-24T10:03:28.651Z,59.80
2019-02-24T10:06:02.069Z,56.30
2019-02-24T10:08:36.163Z,56.70
2019-02-24T10:11:09.730Z,57.60
2019-02-24T10:13:43.666Z,57.30
2019-02-24T10:19:27.092Z,61.90
2019-02-24T10:22:02.370Z,56.60
2019-02-24T10:24:36.047Z,56.00
2019-02-24T10:27:09.731Z,60.20
2019-02-24T10:29:43.785Z,59.30
2019-02-24T10:32:17.811Z,57.00
2019-02-24T10:34:51.494Z,59.30
2019-02-24T10:37:25.487Z,59.30
2019-02-24T10:39:59.497Z,59.00
2019-02-24T10:42:32.911Z,59.30
2019-02-24T10:45:09.210Z,61.30
2019-02-24T10:47:43.951Z,59.70
2019-02-24T10:50:17.939Z,58.10
2019-02-24T10:52:51.369Z,57.60
2019-02-24T10:55:28.800Z,57.40
2019-02-24T10:58:02.474Z,57.10
2019-02-24T11:00:36.597Z,56.20
2019-02-24T11:03:10.569Z,56.10
2019-02-24T11:05:44.285Z,56.50
2019-02-24T11:08:17.577Z,56.60
2019-02-24T11:10:54.505Z,56.60
2019-02-24T11:13:27.596Z,57.90
2019-02-24T11:16:00.708Z,57.40
2019-02-24T11:18:33.892Z,55.30
2019-02-24T11:21:07.581Z,57.00
2019-02-24T11:23:40.908Z,56.50
2019-02-24T11:26:14.120Z,59.00
2019-02-24T11:28:47.223Z,59.60
2019-02-24T11:31:20.562Z,60.00
2019-02-24T11:33:53.762Z,59.40
2019-02-24T11:36:27.013Z,59.20
2019-02-24T11:39:00.239Z,60.40
2019-02-24T11:41:34.185Z,62.00
2019-02-24T11:44:07.872Z,59.90
2019-02-24T11:46:40.859Z,58.80
2019-02-24T11:49:14.340Z,60.60
2019-02-24T11:51:47.656Z,59.50
2019-02-24T11:54:20.859Z,61.60
2019-02-24T11:56:53.744Z,61.90
2019-02-24T11:59:27.188Z,62.10
2019-02-24T12:02:01.062Z,59.60
2019-02-24T12:04:34.194Z,64.20
2019-02-24T12:07:07.388Z,64.80
2019-02-24T12:09:40.673Z,62.90
2019-02-24T12:12:14.536Z,64.40
2019-02-24T12:14:48.009Z,62.10
2019-02-24T12:17:24.557Z,62.20
2019-02-24T12:19:58.011Z,62.60
2019-02-24T12:22:31.775Z,61.50
2019-02-24T12:25:05.387Z,61.40
2019-02-24T12:27:38.884Z,64.10
2019-02-24T12:30:12.908Z,62.70
2019-02-24T12:32:46.091Z,62.00
2019-02-24T12:35:19.224Z,64.10
2019-02-24T12:37:52.413Z,66.40
2019-02-24T12:40:25.782Z,63.40
2019-02-24T12:43:05.727Z,65.00
2019-02-24T12:45:40.885Z,63.70
2019-02-24T12:48:14.059Z,62.90
2019-02-24T12:50:47.758Z,63.30
2019-02-24T12:53:21.055Z,65.30
2019-02-24T12:55:54.260Z,64.20
2019-02-24T12:58:27.187Z,63.80
2019-02-24T13:01:02.684Z,64.30
2019-02-24T13:03:36.400Z,64.30
2019-02-24T13:06:09.737Z,67.10
2019-02-24T13:08:43.080Z,66.60
2019-02-24T13:11:16.043Z,66.60
2019-02-24T13:13:49.424Z,67.90
2019-02-24T13:16:26.134Z,69.10
2019-02-24T13:18:59.480Z,69.00
2019-02-24T13:21:32.889Z,69.60
2019-02-24T13:24:06.340Z,67.90
2019-02-24T13:26:39.707Z,67.30
2019-02-24T13:29:12.866Z,72.90
2019-02-24T13:31:46.469Z,72.50
2019-02-24T13:34:21.398Z,73.20
2019-02-24T13:36:55.076Z,72.60
2019-02-24T13:39:28.352Z,68.10
2019-02-24T13:42:02.997Z,68.70
2019-02-24T13:44:36.714Z,69.50
2019-02-24T13:47:13.231Z,72.80
2019-02-24T13:49:46.520Z,72.70
2019-02-24T13:52:20.135Z,70.30
2019-02-24T13:54:53.538Z,71.20
2019-02-24T13:57:32.669Z,71.70
2019-02-24T14:00:09.619Z,71.40
2019-02-24T14:02:46.733Z,74.20
2019-02-24T14:05:21.355Z,73.60
2019-02-24T14:07:56.590Z,73.10
2019-02-24T14:10:31.453Z,75.00
2019-02-24T14:13:08.865Z,74.10
2019-02-24T14:15:42.869Z,72.20
2019-02-24T14:18:16.446Z,73.50
2019-02-24T14:20:49.913Z,73.50
2019-02-24T14:23:23.900Z,72.00
2019-02-24T14:25:58.286Z,73.50
2019-02-24T14:28:32.842Z,73.30
2019-02-24T14:31:07.073Z,72.50
2019-02-24T14:33:40.391Z,73.80
2019-02-24T14:36:14.799Z,75.00
2019-02-24T14:38:48.508Z,74.20
2019-02-24T14:41:23.898Z,77.00
2019-02-24T14:44:03.000Z,74.10
2019-02-24T14:46:36.444Z,74.70
2019-02-24T14:49:10.653Z,74.50
2019-02-24T14:51:43.633Z,75.20
2019-02-24T14:54:16.708Z,76.60
2019-02-24T14:56:50.483Z,77.70
2019-02-24T14:59:23.904Z,75.70
2019-02-24T15:01:57.126Z,75.80
2019-02-24T15:04:30.979Z,77.30
2019-02-24T15:07:08.076Z,76.80
2019-02-24T15:09:42.185Z,77.10
2019-02-24T15:12:16.734Z,77.30
2019-02-24T15:14:49.433Z,79.30
2019-02-24T15:17:22.109Z,78.00
2019-02-24T15:19:55.490Z,77.10
2019-02-24T15:22:28.100Z,77.70
2019-02-24T15:25:00.696Z,78.40
2019-02-24T15:27:34.409Z,79.50
2019-02-24T15:30:17.002Z,79.70
2019-02-24T15:32:52.003Z,80.10
2019-02-24T15:35:25.163Z,77.90
2019-02-24T15:38:09.634Z,79.10
2019-02-24T15:40:42.460Z,79.00
2019-02-24T15:43:15.677Z,81.10
2019-02-24T15:45:55.555Z,79.70
2019-02-24T15:48:28.536Z,79.20
2019-02-24T15:51:15.193Z,78.60
2019-02-24T15:53:51.304Z,80.00
2019-02-24T15:56:26.211Z,79.20
2019-02-24T15:59:00.877Z,80.80
2019-02-24T16:01:34.776Z,79.90
2019-02-24T16:04:08.387Z,80.20
2019-02-24T16:06:42.484Z,81.50
2019-02-24T16:09:19.712Z,80.90
2019-02-24T16:11:54.948Z,80.20
2019-02-24T16:14:31.104Z,81.00
2019-02-24T16:17:08.892Z,81.10
2019-02-24T16:19:45.320Z,82.70
2019-02-24T16:22:21.478Z,82.70
2019-02-24T16:24:56.241Z,82.90
2019-02-24T16:27:30.349Z,83.00
2019-02-24T16:30:06.802Z,84.00
2019-02-24T16:32:46.360Z,83.20
2019-02-24T16:35:22.745Z,84.70
2019-02-24T16:38:03.675Z,85.30
2019-02-24T16:40:41.938Z,86.90
2019-02-24T16:43:18.848Z,86.20
2019-02-24T16:45:56.955Z,86.80
2019-02-24T16:48:33.428Z,87.50
2019-02-24T16:51:10.995Z,87.20
2019-02-24T16:53:48.737Z,87.20
2019-02-24T16:56:23.809Z,88.30
2019-02-24T16:58:57.845Z,89.30
2019-02-24T17:01:32.834Z,90.00
2019-02-24T17:04:06.519Z,90.30
2019-02-24T17:06:39.726Z,90.60
2019-02-24T17:09:30.061Z,90.70
2019-02-24T17:12:06.164Z,90.60
2019-02-24T17:14:41.518Z,90.40
2019-02-24T17:17:15.158Z,90.20
2019-02-24T17:19:48.275Z,90.30
2019-02-24T17:22:21.719Z,90.50
2019-02-24T17:24:56.938Z,90.60
2019-02-24T17:27:30.688Z,90.90
2019-02-24T17:30:04.854Z,90.00
2019-02-24T17:32:38.434Z,90.00
2019-02-24T17:35:11.829Z,90.10
2019-02-24T17:37:45.369Z,90.10
2019-02-24T17:40:19.706Z,89.90
2019-02-24T17:42:53.572Z,90.10
2019-02-24T17:45:27.816Z,89.60
2019-02-24T17:48:02.375Z,88.50
2019-02-24T17:50:37.207Z,88.10
2019-02-24T17:53:13.518Z,87.90
2019-02-24T17:55:47.191Z,88.00
2019-02-24T17:58:20.756Z,86.90
2019-02-24T18:01:00.626Z,87.70
2019-02-24T18:03:39.516Z,88.60
2019-02-24T18:06:13.471Z,89.20
2019-02-24T18:08:47.145Z,89.50
2019-02-24T18:11:20.627Z,88.20
2019-02-24T18:13:55.059Z,87.90
2019-02-24T18:16:28.914Z,88.10
2019-02-24T18:19:02.123Z,87.90
2019-02-24T18:21:38.846Z,87.80
2019-02-24T18:24:12.441Z,87.70
2019-02-24T18:26:45.685Z,88.40
2019-02-24T18:29:19.048Z,89.60
2019-02-24T18:31:53.573Z,89.70
2019-02-24T18:34:28.451Z,89.80
2019-02-24T18:37:01.753Z,89.40
2019-02-24T18:39:36.383Z,89.60
2019-02-24T18:42:33.333Z,89.50
2019-02-24T18:45:07.091Z,90.00
2019-02-24T18:47:40.044Z,90.20
2019-02-24T18:50:13.941Z,90.30
2019-02-24T18:52:47.295Z,89.80
2019-02-24T18:55:20.649Z,88.30
2019-02-24T18:57:56.600Z,86.80
2019-02-24T19:00:30.323Z,86.20
2019-02-24T19:03:03.607Z,86.60
2019-02-24T19:05:38.850Z,87.10
2019-02-24T19:08:15.287Z,87.70
2019-02-24T19:10:48.523Z,88.00
2019-02-24T19:13:21.723Z,87.70
2019-02-24T19:15:54.671Z,88.30
2019-02-24T19:18:27.987Z,89.20
2019-02-24T19:21:01.029Z,89.70
2019-02-24T19:23:34.212Z,89.30
2019-02-24T19:26:09.923Z,90.00
2019-02-24T19:28:43.106Z,87.40
2019-02-24T19:31:16.481Z,88.50
2019-02-24T19:33:49.948Z,89.20
2019-02-24T19:36:26.692Z,90.00
2019-02-24T19:38:59.908Z,90.20
2019-02-24T19:41:32.988Z,90.10
2019-02-24T19:44:06.239Z,90.00
2019-02-24T19:46:39.499Z,90.00
2019-02-24T19:49:13.570Z,90.10
2019-02-24T19:51:47.149Z,90.70
2019-02-24T19:54:21.199Z,91.20
2019-02-24T19:56:54.539Z,91.40
2019-02-24T19:59:28.398Z,91.50
2019-02-24T20:02:02.847Z,91.80
2019-02-24T20:04:36.255Z,91.30
2019-02-24T20:07:09.276Z,91.40
2019-02-24T20:09:42.615Z,91.60
2019-02-24T20:12:21.502Z,91.60
2019-02-24T20:14:54.724Z,91.80
2019-02-24T20:17:28.359Z,91.90
2019-02-24T20:20:01.621Z,92.10
2019-02-24T20:22:34.824Z,92.60
2019-02-24T20:25:10.012Z,92.50
2019-02-24T20:27:43.036Z,92.90
2019-02-24T20:30:26.681Z,93.10
2019-02-24T20:32:59.975Z,93.40
2019-02-24T20:35:33.278Z,93.10
2019-02-24T20:38:07.879Z,93.00
2019-02-24T20:40:41.351Z,93.20
2019-02-24T20:43:16.080Z,93.20
2019-02-24T20:45:55.600Z,93.30
2019-02-24T20:48:42.350Z,93.60
2019-02-24T20:51:33.917Z,93.40
2019-02-24T20:54:21.979Z,93.50
2019-02-24T20:57:05.738Z,93.50
2019-02-24T20:59:52.444Z,93.50
2019-02-24T21:02:40.421Z,93.10
2019-02-24T21:05:21.952Z,93.20
2019-02-24T21:08:09.000Z,93.20
2019-02-24T21:11:08.051Z,93.30
2019-02-24T21:14:01.870Z,94.10
2019-02-24T21:16:45.535Z,94.00
2019-02-24T21:19:27.567Z,94.30
2019-02-24T21:22:17.900Z,94.10
2019-02-24T21:24:58.561Z,94.30
2019-02-24T21:27:45.274Z,94.60
2019-02-24T21:30:32.593Z,94.70
2019-02-24T21:33:12.207Z,95.40
2019-02-24T21:36:04.729Z,94.80
2019-02-24T21:38:45.344Z,95.10
2019-02-24T21:41:31.418Z,95.30
2019-02-24T21:44:17.170Z,95.40
2019-02-24T21:47:17.456Z,95.40
2019-02-24T21:50:14.135Z,95.50
2019-02-24T21:53:00.519Z,95.70
2019-02-24T21:55:44.550Z,95.40
2019-02-24T21:58:45.246Z,95.50
2019-02-24T22:01:34.437Z,95.60
2019-02-24T22:04:45.136Z,95.90
2019-02-24T22:07:27.288Z,96.00
2019-02-24T22:10:11.377Z,95.40
2019-02-24T22:12:59.595Z,95.20
2019-02-24T22:15:43.203Z,95.30
2019-02-24T22:18:33.930Z,95.40
2019-02-24T22:21:23.882Z,95.60
2019-02-24T22:24:04.064Z,95.60
2019-02-24T22:26:39.278Z,95.50
2019-02-24T22:29:17.467Z,95.60
2019-02-24T22:31:56.661Z,95.30
2019-02-24T22:34:31.343Z,95.30
2019-02-24T22:37:09.246Z,95.40
2019-02-24T22:39:44.252Z,95.40
2019-02-24T22:42:27.707Z,95.30
2019-02-24T22:45:06.028Z,95.30
2019-02-24T22:47:44.231Z,95.40
2019-02-24T22:50:19.341Z,95.40
2019-02-24T22:52:54.142Z,95.80
2019-02-24T22:55:29.070Z,96.10
2019-02-24T22:58:03.851Z,95.70
2019-02-24T23:00:58.034Z,95.60
2019-02-24T23:03:42.120Z,95.50
2019-02-24T23:06:20.069Z,95.20
2019-02-24T23:08:58.179Z,95.20
2019-02-24T23:11:33.704Z,95.10
2019-02-24T23:14:08.525Z,95.30
2019-02-24T23:16:43.044Z,95.40
2019-02-24T23:19:21.546Z,95.20
2019-02-24T23:21:56.686Z,95.30
2019-02-24T23:24:33.001Z,95.10
2019-02-24T23:27:11.394Z,95.10
2019-02-24T23:29:46.438Z,95.20
2019-02-24T23:32:27.884Z,95.40
2019-02-24T23:35:02.589Z,95.20
2019-02-24T23:37:37.400Z,95.20
2019-02-24T23:40:13.482Z,95.70
2019-02-24T23:42:49.231Z,95.80
2019-02-24T23:45:24.292Z,95.70
2019-02-24T23:48:02.941Z,95.10
2019-02-24T23:50:41.115Z,94.80
2019-02-24T23:53:18.135Z,95.10
2019-02-24T23:55:52.654Z,94.80
2019-02-24T23:58:27.851Z,95.90
